sensor_id;sensor_type;location;lat;lon;timestamp;pressure;altitude;pressure_sealevel;temperature;humidity
35989;BME280;22064;42.672;23.282;2022-08-11T00:00:10;94817.44;;;17.58;100.00
35989;BME280;22064;42.672;23.282;2022-08-11T00:02:42;94821.63;;;17.59;100.00
35989;BME280;22064;42.672;23.282;2022-08-11T00:05:10;94823.78;;;17.57;100.00
35989;BME280;22064;42.672;23.282;2022-08-11T00:07:49;94811.72;;;17.51;100.00
35989;BME280;22064;42.672;23.282;2022-08-11T00:10:18;94816.34;;;17.35;100.00
35989;BME280;22064;42.672;23.282;2022-08-11T00:12:54;94810.47;;;17.19;100.00
35989;BME280;22064;42.672;23.282;2022-08-11T00:15:22;94826.38;;;17.09;100.00
35989;BME280;22064;42.672;23.282;2022-08-11T00:17:55;94822.84;;;16.95;100.00
35989;BME280;22064;42.672;23.282;2022-08-11T00:20:22;94819.94;;;16.91;100.00
35989;BME280;22064;42.672;23.282;2022-08-11T00:23:01;94819.66;;;16.98;100.00
35989;BME280;22064;42.672;23.282;2022-08-11T00:25:27;94824.09;;;16.97;100.00
35989;BME280;22064;42.672;23.282;2022-08-11T00:27:53;94812.47;;;17.03;100.00
35989;BME280;22064;42.672;23.282;2022-08-11T00:30:19;94811.13;;;17.06;100.00
35989;BME280;22064;42.672;23.282;2022-08-11T00:32:55;94806.66;;;17.06;100.00
35989;BME280;22064;42.672;23.282;2022-08-11T00:35:27;94810.34;;;17.05;100.00
35989;BME280;22064;42.672;23.282;2022-08-11T00:37:54;94813.22;;;17.09;100.00
35989;BME280;22064;42.672;23.282;2022-08-11T00:43:26;94806.31;;;17.13;100.00
35989;BME280;22064;42.672;23.282;2022-08-11T01:02:13;94809.94;;;16.93;100.00
35989;BME280;22064;42.672;23.282;2022-08-11T01:16:04;94796.66;;;16.79;100.00
35989;BME280;22064;42.672;23.282;2022-08-11T01:48:01;94786.19;;;16.69;100.00
35989;BME280;22064;42.672;23.282;2022-08-11T01:53:25;94784.44;;;16.59;100.00
35989;BME280;22064;42.672;23.282;2022-08-11T01:56:04;94793.63;;;16.62;100.00
35989;BME280;22064;42.672;23.282;2022-08-11T02:15:24;94783.13;;;16.57;100.00
35989;BME280;22064;42.672;23.282;2022-08-11T02:18:09;94792.91;;;16.51;100.00
35989;BME280;22064;42.672;23.282;2022-08-11T02:20:46;94777.16;;;16.51;100.00
35989;BME280;22064;42.672;23.282;2022-08-11T02:23:38;94760.22;;;16.28;100.00
35989;BME280;22064;42.672;23.282;2022-08-11T02:26:18;94785.63;;;16.43;100.00
35989;BME280;22064;42.672;23.282;2022-08-11T02:37:26;94795.72;;;16.26;100.00
35989;BME280;22064;42.672;23.282;2022-08-11T02:45:11;94792.34;;;16.20;100.00
35989;BME280;22064;42.672;23.282;2022-08-11T02:56:56;94792.63;;;16.19;100.00
35989;BME280;22064;42.672;23.282;2022-08-11T02:59:30;94785.00;;;16.17;100.00
35989;BME280;22064;42.672;23.282;2022-08-11T03:14:05;94798.28;;;16.36;100.00
35989;BME280;22064;42.672;23.282;2022-08-11T03:16:57;94800.84;;;16.41;100.00
35989;BME280;22064;42.672;23.282;2022-08-11T03:24:48;94796.22;;;16.33;100.00
35989;BME280;22064;42.672;23.282;2022-08-11T03:27:33;94798.59;;;16.29;100.00
35989;BME280;22064;42.672;23.282;2022-08-11T03:33:14;94794.69;;;16.22;100.00
35989;BME280;22064;42.672;23.282;2022-08-11T03:36:14;94785.19;;;16.26;100.00
35989;BME280;22064;42.672;23.282;2022-08-11T03:47:22;94797.09;;;16.18;100.00
35989;BME280;22064;42.672;23.282;2022-08-11T03:58:31;94804.03;;;16.38;100.00
35989;BME280;22064;42.672;23.282;2022-08-11T04:01:15;94807.41;;;16.44;100.00
35989;BME280;22064;42.672;23.282;2022-08-11T04:04:05;94807.09;;;16.50;100.00
35989;BME280;22064;42.672;23.282;2022-08-11T04:10:10;94803.19;;;17.11;100.00
35989;BME280;22064;42.672;23.282;2022-08-11T04:22:03;94792.63;;;19.38;100.00
35989;BME280;22064;42.672;23.282;2022-08-11T04:25:01;94805.94;;;19.74;100.00
35989;BME280;22064;42.672;23.282;2022-08-11T04:58:08;94817.72;;;18.75;100.00
35989;BME280;22064;42.672;23.282;2022-08-11T05:04:20;94813.00;;;18.20;100.00
35989;BME280;22064;42.672;23.282;2022-08-11T05:14:58;94814.28;;;18.04;100.00
35989;BME280;22064;42.672;23.282;2022-08-11T05:18:09;94816.47;;;18.16;100.00
35989;BME280;22064;42.672;23.282;2022-08-11T05:21:02;94801.56;;;18.44;100.00
35989;BME280;22064;42.672;23.282;2022-08-11T05:23:56;94798.59;;;18.51;100.00
35989;BME280;22064;42.672;23.282;2022-08-11T05:26:46;94812.69;;;18.41;100.00
35989;BME280;22064;42.672;23.282;2022-08-11T05:30:11;94815.94;;;18.70;100.00
35989;BME280;22064;42.672;23.282;2022-08-11T05:33:07;94821.38;;;18.60;100.00
35989;BME280;22064;42.672;23.282;2022-08-11T05:36:18;94813.81;;;18.35;100.00
35989;BME280;22064;42.672;23.282;2022-08-11T05:38:58;94816.69;;;18.19;100.00
35989;BME280;22064;42.672;23.282;2022-08-11T05:41:43;94810.34;;;18.39;100.00
35989;BME280;22064;42.672;23.282;2022-08-11T05:44:29;94814.16;;;18.47;100.00
35989;BME280;22064;42.672;23.282;2022-08-11T05:47:39;94814.69;;;18.49;100.00
35989;BME280;22064;42.672;23.282;2022-08-11T05:50:25;94809.63;;;18.34;100.00
35989;BME280;22064;42.672;23.282;2022-08-11T05:53:12;94805.78;;;18.45;100.00
35989;BME280;22064;42.672;23.282;2022-08-11T05:55:58;94800.44;;;18.31;100.00
35989;BME280;22064;42.672;23.282;2022-08-11T05:58:53;94814.25;;;18.42;100.00
35989;BME280;22064;42.672;23.282;2022-08-11T06:01:26;94806.47;;;18.69;100.00
35989;BME280;22064;42.672;23.282;2022-08-11T06:03:55;94817.00;;;18.88;100.00
35989;BME280;22064;42.672;23.282;2022-08-11T06:07:06;94810.94;;;18.88;100.00
35989;BME280;22064;42.672;23.282;2022-08-11T06:09:48;94808.66;;;19.28;100.00
35989;BME280;22064;42.672;23.282;2022-08-11T06:12:20;94803.56;;;19.45;100.00
35989;BME280;22064;42.672;23.282;2022-08-11T06:14:49;94808.16;;;19.26;100.00
35989;BME280;22064;42.672;23.282;2022-08-11T06:17:27;94808.66;;;19.42;100.00
35989;BME280;22064;42.672;23.282;2022-08-11T06:20:03;94810.97;;;19.15;100.00
35989;BME280;22064;42.672;23.282;2022-08-11T06:22:31;94800.91;;;19.31;100.00
35989;BME280;22064;42.672;23.282;2022-08-11T06:24:59;94798.09;;;19.42;100.00
35989;BME280;22064;42.672;23.282;2022-08-11T06:27:26;94801.44;;;19.61;100.00
35989;BME280;22064;42.672;23.282;2022-08-11T06:29:55;94806.44;;;19.63;100.00
35989;BME280;22064;42.672;23.282;2022-08-11T06:32:33;94802.69;;;19.50;100.00
35989;BME280;22064;42.672;23.282;2022-08-11T06:40:55;94809.78;;;20.18;100.00
35989;BME280;22064;42.672;23.282;2022-08-11T06:43:48;94804.41;;;20.46;100.00
35989;BME280;22064;42.672;23.282;2022-08-11T06:46:25;94808.59;;;20.61;100.00
35989;BME280;22064;42.672;23.282;2022-08-11T06:48:53;94805.34;;;20.64;100.00
35989;BME280;22064;42.672;23.282;2022-08-11T06:51:19;94798.59;;;20.80;100.00
35989;BME280;22064;42.672;23.282;2022-08-11T06:53:53;94798.06;;;20.92;100.00
35989;BME280;22064;42.672;23.282;2022-08-11T06:56:31;94809.75;;;20.99;100.00
35989;BME280;22064;42.672;23.282;2022-08-11T06:59:18;94802.25;;;21.47;100.00
35989;BME280;22064;42.672;23.282;2022-08-11T07:04:39;94806.59;;;21.51;100.00
35989;BME280;22064;42.672;23.282;2022-08-11T07:07:17;94806.66;;;20.97;100.00
35989;BME280;22064;42.672;23.282;2022-08-11T07:13:36;94805.38;;;21.26;100.00
35989;BME280;22064;42.672;23.282;2022-08-11T07:16:30;94817.69;;;21.53;100.00
35989;BME280;22064;42.672;23.282;2022-08-11T07:19:18;94810.69;;;21.26;100.00
35989;BME280;22064;42.672;23.282;2022-08-11T07:22:05;94810.59;;;21.80;100.00
35989;BME280;22064;42.672;23.282;2022-08-11T07:25:10;94814.59;;;22.26;100.00
35989;BME280;22064;42.672;23.282;2022-08-11T07:28:01;94814.97;;;21.84;100.00
35989;BME280;22064;42.672;23.282;2022-08-11T07:30:47;94815.38;;;21.60;100.00
35989;BME280;22064;42.672;23.282;2022-08-11T07:33:24;94815.81;;;21.54;100.00
35989;BME280;22064;42.672;23.282;2022-08-11T07:35:55;94811.97;;;21.68;100.00
35989;BME280;22064;42.672;23.282;2022-08-11T07:38:26;94805.97;;;21.45;100.00
35989;BME280;22064;42.672;23.282;2022-08-11T07:41:16;94807.09;;;21.53;100.00
35989;BME280;22064;42.672;23.282;2022-08-11T07:43:44;94802.56;;;21.54;100.00
35989;BME280;22064;42.672;23.282;2022-08-11T07:46:13;94801.81;;;21.62;100.00
35989;BME280;22064;42.672;23.282;2022-08-11T07:48:58;94804.03;;;21.77;100.00
35989;BME280;22064;42.672;23.282;2022-08-11T07:51:43;94808.81;;;22.15;100.00
35989;BME280;22064;42.672;23.282;2022-08-11T07:54:27;94797.88;;;22.77;100.00
35989;BME280;22064;42.672;23.282;2022-08-11T07:56:55;94798.13;;;23.11;100.00
35989;BME280;22064;42.672;23.282;2022-08-11T07:59:21;94798.59;;;23.60;100.00
35989;BME280;22064;42.672;23.282;2022-08-11T08:02:07;94801.63;;;24.09;100.00
35989;BME280;22064;42.672;23.282;2022-08-11T08:04:53;94797.38;;;23.01;100.00
35989;BME280;22064;42.672;23.282;2022-08-11T08:07:38;94801.66;;;22.24;100.00
35989;BME280;22064;42.672;23.282;2022-08-11T08:10:22;94794.72;;;22.93;100.00
35989;BME280;22064;42.672;23.282;2022-08-11T08:13:07;94798.66;;;22.69;100.00
35989;BME280;22064;42.672;23.282;2022-08-11T08:15:52;94795.56;;;22.24;100.00
35989;BME280;22064;42.672;23.282;2022-08-11T08:18:37;94796.31;;;22.68;100.00
35989;BME280;22064;42.672;23.282;2022-08-11T08:21:04;94796.47;;;22.97;100.00
35989;BME280;22064;42.672;23.282;2022-08-11T08:23:38;94787.38;;;22.98;100.00
35989;BME280;22064;42.672;23.282;2022-08-11T08:26:14;94790.84;;;23.46;100.00
35989;BME280;22064;42.672;23.282;2022-08-11T08:29:04;94788.56;;;23.74;100.00
35989;BME280;22064;42.672;23.282;2022-08-11T08:31:49;94784.75;;;24.05;100.00
35989;BME280;22064;42.672;23.282;2022-08-11T08:34:16;94782.44;;;24.45;100.00
35989;BME280;22064;42.672;23.282;2022-08-11T08:36:44;94786.94;;;23.82;100.00
35989;BME280;22064;42.672;23.282;2022-08-11T08:39:12;94780.75;;;23.69;100.00
35989;BME280;22064;42.672;23.282;2022-08-11T08:41:39;94789.97;;;23.92;100.00
35989;BME280;22064;42.672;23.282;2022-08-11T08:44:09;94778.13;;;24.11;100.00
35989;BME280;22064;42.672;23.282;2022-08-11T08:46:40;94776.47;;;24.48;100.00
35989;BME280;22064;42.672;23.282;2022-08-11T08:49:09;94779.88;;;25.03;100.00
35989;BME280;22064;42.672;23.282;2022-08-11T08:51:40;94783.38;;;24.95;98.16
35989;BME280;22064;42.672;23.282;2022-08-11T08:54:16;94788.31;;;24.72;100.00
35989;BME280;22064;42.672;23.282;2022-08-11T08:56:44;94781.78;;;24.06;99.04
35989;BME280;22064;42.672;23.282;2022-08-11T08:59:14;94774.91;;;23.76;100.00
35989;BME280;22064;42.672;23.282;2022-08-11T09:01:50;94775.28;;;24.16;99.67
35989;BME280;22064;42.672;23.282;2022-08-11T09:04:17;94764.97;;;24.56;93.28
35989;BME280;22064;42.672;23.282;2022-08-11T09:06:46;94772.50;;;24.12;100.00
35989;BME280;22064;42.672;23.282;2022-08-11T09:09:12;94771.19;;;23.68;100.00
35989;BME280;22064;42.672;23.282;2022-08-11T09:11:41;94769.19;;;24.15;100.00
35989;BME280;22064;42.672;23.282;2022-08-11T09:14:42;94764.56;;;24.66;100.00
35989;BME280;22064;42.672;23.282;2022-08-11T09:17:26;94760.97;;;24.83;97.04
35989;BME280;22064;42.672;23.282;2022-08-11T09:20:18;94761.63;;;24.80;96.30
35989;BME280;22064;42.672;23.282;2022-08-11T09:22:45;94755.56;;;23.66;100.00
35989;BME280;22064;42.672;23.282;2022-08-11T09:25:31;94760.91;;;23.58;100.00
35989;BME280;22064;42.672;23.282;2022-08-11T09:28:17;94758.53;;;23.35;100.00
35989;BME280;22064;42.672;23.282;2022-08-11T09:30:46;94751.34;;;23.74;96.57
35989;BME280;22064;42.672;23.282;2022-08-11T09:33:15;94762.63;;;23.62;98.67
35989;BME280;22064;42.672;23.282;2022-08-11T09:35:41;94755.41;;;23.71;92.27
35989;BME280;22064;42.672;23.282;2022-08-11T09:38:10;94760.09;;;23.66;95.72
35989;BME280;22064;42.672;23.282;2022-08-11T09:40:56;94761.06;;;23.91;91.85
35989;BME280;22064;42.672;23.282;2022-08-11T09:43:24;94765.03;;;24.06;85.31
35989;BME280;22064;42.672;23.282;2022-08-11T09:46:09;94750.25;;;23.96;87.53
35989;BME280;22064;42.672;23.282;2022-08-11T09:48:43;94753.34;;;24.40;80.30
35989;BME280;22064;42.672;23.282;2022-08-11T09:51:10;94747.72;;;24.20;84.75
35989;BME280;22064;42.672;23.282;2022-08-11T09:53:39;94757.75;;;24.36;93.39
35989;BME280;22064;42.672;23.282;2022-08-11T09:56:09;94731.09;;;23.52;100.00
35989;BME280;22064;42.672;23.282;2022-08-11T09:58:54;94747.44;;;23.71;100.00
35989;BME280;22064;42.672;23.282;2022-08-11T10:01:22;94728.69;;;24.31;100.00
35989;BME280;22064;42.672;23.282;2022-08-11T10:03:58;94740.06;;;24.19;100.00
35989;BME280;22064;42.672;23.282;2022-08-11T10:06:27;94730.25;;;23.69;100.00
35989;BME280;22064;42.672;23.282;2022-08-11T10:09:15;94729.22;;;23.82;97.19
35989;BME280;22064;42.672;23.282;2022-08-11T10:11:42;94732.56;;;23.70;94.28
35989;BME280;22064;42.672;23.282;2022-08-11T10:14:08;94742.84;;;23.81;91.33
35989;BME280;22064;42.672;23.282;2022-08-11T10:16:54;94725.13;;;23.85;94.05
35989;BME280;22064;42.672;23.282;2022-08-11T10:19:20;94730.25;;;23.90;88.86
35989;BME280;22064;42.672;23.282;2022-08-11T10:21:50;94723.50;;;24.34;81.38
35989;BME280;22064;42.672;23.282;2022-08-11T10:24:37;94739.66;;;24.83;83.91
35989;BME280;22064;42.672;23.282;2022-08-11T10:27:22;94734.66;;;23.86;100.00
35989;BME280;22064;42.672;23.282;2022-08-11T10:29:48;94734.53;;;24.03;100.00
35989;BME280;22064;42.672;23.282;2022-08-11T10:32:34;94724.44;;;24.17;97.56
35989;BME280;22064;42.672;23.282;2022-08-11T10:35:20;94721.13;;;24.00;99.05
35989;BME280;22064;42.672;23.282;2022-08-11T10:37:51;94730.00;;;24.04;94.38
35989;BME280;22064;42.672;23.282;2022-08-11T10:40:19;94745.06;;;24.20;91.74
35989;BME280;22064;42.672;23.282;2022-08-11T10:42:56;94727.97;;;23.80;88.56
35989;BME280;22064;42.672;23.282;2022-08-11T10:45:39;94722.72;;;24.13;88.82
35989;BME280;22064;42.672;23.282;2022-08-11T10:48:25;94711.72;;;24.56;81.73
35989;BME280;22064;42.672;23.282;2022-08-11T10:50:53;94719.28;;;24.66;77.87
35989;BME280;22064;42.672;23.282;2022-08-11T10:53:46;94709.56;;;24.95;73.52
35989;BME280;22064;42.672;23.282;2022-08-11T10:56:35;94709.56;;;24.71;74.94
35989;BME280;22064;42.672;23.282;2022-08-11T10:59:21;94721.03;;;24.29;77.69
35989;BME280;22064;42.672;23.282;2022-08-11T11:01:49;94710.38;;;24.96;72.37
35989;BME280;22064;42.672;23.282;2022-08-11T11:04:20;94705.25;;;24.45;77.64
35989;BME280;22064;42.672;23.282;2022-08-11T11:07:03;94709.69;;;24.74;78.15
35989;BME280;22064;42.672;23.282;2022-08-11T11:09:39;94715.66;;;24.17;79.93
35989;BME280;22064;42.672;23.282;2022-08-11T11:12:10;94701.97;;;24.27;83.14
35989;BME280;22064;42.672;23.282;2022-08-11T11:14:57;94710.66;;;24.70;91.46
35989;BME280;22064;42.672;23.282;2022-08-11T11:17:50;94694.53;;;24.54;95.83
35989;BME280;22064;42.672;23.282;2022-08-11T11:23:02;94701.22;;;24.72;88.24
35989;BME280;22064;42.672;23.282;2022-08-11T11:31:51;94691.31;;;25.43;70.08
35989;BME280;22064;42.672;23.282;2022-08-11T11:34:40;94703.69;;;24.77;71.94
35989;BME280;22064;42.672;23.282;2022-08-11T11:37:09;94702.91;;;24.77;74.43
35989;BME280;22064;42.672;23.282;2022-08-11T11:39:37;94683.88;;;25.48;69.04
35989;BME280;22064;42.672;23.282;2022-08-11T11:42:08;94702.75;;;25.31;67.44
35989;BME280;22064;42.672;23.282;2022-08-11T11:44:38;94693.97;;;25.06;61.89
35989;BME280;22064;42.672;23.282;2022-08-11T11:47:04;94704.19;;;25.53;62.44
35989;BME280;22064;42.672;23.282;2022-08-11T11:49:31;94684.22;;;25.22;69.28
35989;BME280;22064;42.672;23.282;2022-08-11T11:51:58;94687.41;;;25.65;66.58
35989;BME280;22064;42.672;23.282;2022-08-11T11:54:27;94686.41;;;25.45;69.86
35989;BME280;22064;42.672;23.282;2022-08-11T11:56:55;94676.56;;;25.21;75.36
35989;BME280;22064;42.672;23.282;2022-08-11T11:59:24;94673.31;;;25.64;71.64
35989;BME280;22064;42.672;23.282;2022-08-11T12:02:12;94678.97;;;26.15;65.53
35989;BME280;22064;42.672;23.282;2022-08-11T12:04:44;94670.13;;;26.55;61.51
35989;BME280;22064;42.672;23.282;2022-08-11T12:07:13;94664.56;;;27.08;57.93
35989;BME280;22064;42.672;23.282;2022-08-11T12:09:58;94668.94;;;26.84;60.11
35989;BME280;22064;42.672;23.282;2022-08-11T12:12:24;94672.34;;;26.25;59.87
35989;BME280;22064;42.672;23.282;2022-08-11T12:15:10;94663.09;;;25.42;64.69
35989;BME280;22064;42.672;23.282;2022-08-11T12:17:36;94660.88;;;25.56;67.41
35989;BME280;22064;42.672;23.282;2022-08-11T12:20:03;94654.22;;;26.31;61.93
35989;BME280;22064;42.672;23.282;2022-08-11T12:22:30;94661.59;;;25.93;63.22
35989;BME280;22064;42.672;23.282;2022-08-11T12:25:34;94655.44;;;25.40;70.00
35989;BME280;22064;42.672;23.282;2022-08-11T12:28:18;94654.25;;;25.78;72.59
35989;BME280;22064;42.672;23.282;2022-08-11T12:30:48;94661.63;;;26.37;70.02
35989;BME280;22064;42.672;23.282;2022-08-11T12:33:15;94656.56;;;26.92;65.44
35989;BME280;22064;42.672;23.282;2022-08-11T12:35:42;94655.47;;;27.44;62.92
35989;BME280;22064;42.672;23.282;2022-08-11T12:38:09;94665.00;;;27.61;61.52
35989;BME280;22064;42.672;23.282;2022-08-11T12:40:36;94663.97;;;28.01;59.82
35989;BME280;22064;42.672;23.282;2022-08-11T12:43:22;94674.00;;;27.88;58.26
35989;BME280;22064;42.672;23.282;2022-08-11T12:46:13;94661.34;;;27.34;59.09
35989;BME280;22064;42.672;23.282;2022-08-11T12:48:44;94679.66;;;27.16;61.17
35989;BME280;22064;42.672;23.282;2022-08-11T12:51:33;94666.63;;;26.99;60.53
35989;BME280;22064;42.672;23.282;2022-08-11T12:54:33;94674.34;;;26.72;62.68
35989;BME280;22064;42.672;23.282;2022-08-11T12:57:05;94669.13;;;26.47;65.32
35989;BME280;22064;42.672;23.282;2022-08-11T12:59:50;94670.63;;;26.17;73.70
35989;BME280;22064;42.672;23.282;2022-08-11T13:02:35;94669.25;;;26.23;75.71
35989;BME280;22064;42.672;23.282;2022-08-11T13:05:20;94670.63;;;26.17;75.56
35989;BME280;22064;42.672;23.282;2022-08-11T13:07:47;94677.78;;;26.00;76.82
35989;BME280;22064;42.672;23.282;2022-08-11T13:10:17;94674.69;;;25.98;77.07
35989;BME280;22064;42.672;23.282;2022-08-11T13:13:03;94673.44;;;26.36;73.29
35989;BME280;22064;42.672;23.282;2022-08-11T13:15:31;94665.31;;;26.61;70.07
35989;BME280;22064;42.672;23.282;2022-08-11T13:17:58;94680.59;;;26.92;67.88
35989;BME280;22064;42.672;23.282;2022-08-11T13:20:24;94674.72;;;27.34;66.41
35989;BME280;22064;42.672;23.282;2022-08-11T13:22:53;94678.66;;;27.56;64.63
35989;BME280;22064;42.672;23.282;2022-08-11T13:25:29;94670.06;;;27.31;64.40
35989;BME280;22064;42.672;23.282;2022-08-11T13:27:58;94670.44;;;27.64;62.05
35989;BME280;22064;42.672;23.282;2022-08-11T13:30:27;94674.22;;;28.18;57.56
35989;BME280;22064;42.672;23.282;2022-08-11T13:33:12;94671.66;;;28.64;54.78
35989;BME280;22064;42.672;23.282;2022-08-11T13:35:39;94661.06;;;28.94;51.27
35989;BME280;22064;42.672;23.282;2022-08-11T13:38:07;94655.50;;;29.30;49.05
35989;BME280;22064;42.672;23.282;2022-08-11T13:40:36;94657.34;;;29.75;47.06
35989;BME280;22064;42.672;23.282;2022-08-11T13:43:02;94654.84;;;30.60;44.97
35989;BME280;22064;42.672;23.282;2022-08-11T13:45:28;94656.84;;;30.67;43.30
35989;BME280;22064;42.672;23.282;2022-08-11T13:47:55;94649.34;;;30.87;41.70
35989;BME280;22064;42.672;23.282;2022-08-11T13:50:23;94647.88;;;31.41;40.71
35989;BME280;22064;42.672;23.282;2022-08-11T13:53:10;94645.13;;;31.96;39.20
35989;BME280;22064;42.672;23.282;2022-08-11T13:55:38;94644.38;;;32.03;39.48
35989;BME280;22064;42.672;23.282;2022-08-11T13:58:05;94642.25;;;32.66;38.62
35989;BME280;22064;42.672;23.282;2022-08-11T14:00:34;94642.97;;;32.52;38.35
35989;BME280;22064;42.672;23.282;2022-08-11T14:03:01;94649.59;;;32.98;36.73
35989;BME280;22064;42.672;23.282;2022-08-11T14:05:32;94636.84;;;33.52;35.33
35989;BME280;22064;42.672;23.282;2022-08-11T14:08:03;94641.09;;;33.39;34.21
35989;BME280;22064;42.672;23.282;2022-08-11T14:10:32;94637.16;;;33.83;33.73
35989;BME280;22064;42.672;23.282;2022-08-11T14:13:08;94625.56;;;33.93;32.59
35989;BME280;22064;42.672;23.282;2022-08-11T14:15:54;94641.06;;;33.67;33.04
35989;BME280;22064;42.672;23.282;2022-08-11T14:18:29;94630.19;;;33.96;32.64
35989;BME280;22064;42.672;23.282;2022-08-11T14:20:57;94632.38;;;34.22;32.29
35989;BME280;22064;42.672;23.282;2022-08-11T14:23:45;94622.38;;;34.19;32.31
35989;BME280;22064;42.672;23.282;2022-08-11T14:26:14;94622.75;;;34.84;31.91
35989;BME280;22064;42.672;23.282;2022-08-11T14:31:25;94631.34;;;34.72;31.37
35989;BME280;22064;42.672;23.282;2022-08-11T14:33:54;94631.72;;;35.68;30.23
35989;BME280;22064;42.672;23.282;2022-08-11T14:36:25;94630.56;;;36.34;28.96
35989;BME280;22064;42.672;23.282;2022-08-11T14:38:51;94636.59;;;37.22;27.97
35989;BME280;22064;42.672;23.282;2022-08-11T14:41:20;94630.28;;;36.55;28.23
35989;BME280;22064;42.672;23.282;2022-08-11T14:44:07;94626.22;;;36.09;28.99
35989;BME280;22064;42.672;23.282;2022-08-11T14:46:52;94621.72;;;36.57;28.23
35989;BME280;22064;42.672;23.282;2022-08-11T14:49:35;94611.34;;;37.26;27.87
35989;BME280;22064;42.672;23.282;2022-08-11T14:52:12;94625.22;;;37.31;27.77
35989;BME280;22064;42.672;23.282;2022-08-11T14:54:50;94628.25;;;37.57;27.80
35989;BME280;22064;42.672;23.282;2022-08-11T14:57:36;94625.44;;;37.84;27.84
35989;BME280;22064;42.672;23.282;2022-08-11T15:00:05;94622.56;;;37.04;28.31
35989;BME280;22064;42.672;23.282;2022-08-11T15:02:32;94606.09;;;38.02;27.28
35989;BME280;22064;42.672;23.282;2022-08-11T15:05:18;94617.63;;;37.66;27.87
35989;BME280;22064;42.672;23.282;2022-08-11T15:07:44;94623.34;;;36.78;29.16
35989;BME280;22064;42.672;23.282;2022-08-11T15:10:11;94618.06;;;36.94;29.26
35989;BME280;22064;42.672;23.282;2022-08-11T15:12:39;94615.84;;;38.35;27.34
35989;BME280;22064;42.672;23.282;2022-08-11T15:15:07;94608.59;;;40.18;25.44
35989;BME280;22064;42.672;23.282;2022-08-11T15:17:55;94607.44;;;40.57;24.47
35989;BME280;22064;42.672;23.282;2022-08-11T15:20:23;94609.19;;;41.72;23.08
35989;BME280;22064;42.672;23.282;2022-08-11T15:23:08;94602.97;;;40.63;24.46
35989;BME280;22064;42.672;23.282;2022-08-11T15:26:24;94610.50;;;39.92;25.71
35989;BME280;22064;42.672;23.282;2022-08-11T15:29:13;94608.84;;;37.58;27.82
35989;BME280;22064;42.672;23.282;2022-08-11T15:31:58;94602.97;;;33.04;33.37
35989;BME280;22064;42.672;23.282;2022-08-11T15:34:46;94546.31;;;30.72;37.36
35989;BME280;22064;42.672;23.282;2022-08-11T15:37:32;94606.53;;;30.27;39.56
35989;BME280;22064;42.672;23.282;2022-08-11T15:43:09;94593.25;;;30.82;39.13
35989;BME280;22064;42.672;23.282;2022-08-11T15:45:56;94593.94;;;29.63;41.03
35989;BME280;22064;42.672;23.282;2022-08-11T15:48:55;94604.38;;;28.46;44.49
35989;BME280;22064;42.672;23.282;2022-08-11T15:53:56;94602.00;;;27.79;47.23
35989;BME280;22064;42.672;23.282;2022-08-11T15:56:25;94597.56;;;27.32;49.06
35989;BME280;22064;42.672;23.282;2022-08-11T15:58:53;94589.84;;;26.80;51.80
35989;BME280;22064;42.672;23.282;2022-08-11T16:01:42;94601.28;;;26.33;55.65
35989;BME280;22064;42.672;23.282;2022-08-11T16:04:29;94586.22;;;25.96;58.25
35989;BME280;22064;42.672;23.282;2022-08-11T16:06:59;94613.75;;;26.00;60.30
35989;BME280;22064;42.672;23.282;2022-08-11T16:09:26;94616.41;;;25.60;61.25
35989;BME280;22064;42.672;23.282;2022-08-11T16:11:56;94600.06;;;25.21;63.18
35989;BME280;22064;42.672;23.282;2022-08-11T16:14:25;94607.03;;;25.26;64.55
35989;BME280;22064;42.672;23.282;2022-08-11T16:17:10;94608.81;;;25.09;64.36
35989;BME280;22064;42.672;23.282;2022-08-11T16:19:41;94600.94;;;25.25;62.90
35989;BME280;22064;42.672;23.282;2022-08-11T16:22:09;94608.38;;;25.32;61.51
35989;BME280;22064;42.672;23.282;2022-08-11T16:24:38;94609.16;;;25.20;62.05
35989;BME280;22064;42.672;23.282;2022-08-11T16:27:10;94609.38;;;25.03;62.87
35989;BME280;22064;42.672;23.282;2022-08-11T16:29:44;94613.97;;;25.15;62.84
35989;BME280;22064;42.672;23.282;2022-08-11T16:32:20;94609.28;;;25.11;62.85
35989;BME280;22064;42.672;23.282;2022-08-11T16:34:59;94608.16;;;25.00;63.77
35989;BME280;22064;42.672;23.282;2022-08-11T16:37:44;94608.56;;;25.51;61.33
35989;BME280;22064;42.672;23.282;2022-08-11T16:40:30;94603.50;;;27.10;52.95
35989;BME280;22064;42.672;23.282;2022-08-11T16:42:57;94625.41;;;28.05;48.46
35989;BME280;22064;42.672;23.282;2022-08-11T16:45:42;94620.75;;;28.87;45.48
35989;BME280;22064;42.672;23.282;2022-08-11T16:48:33;94625.13;;;29.75;42.81
35989;BME280;22064;42.672;23.282;2022-08-11T16:50:58;94628.34;;;30.22;41.44
35989;BME280;22064;42.672;23.282;2022-08-11T16:53:28;94629.38;;;29.80;41.21
35989;BME280;22064;42.672;23.282;2022-08-11T16:55:57;94634.16;;;28.64;43.68
35989;BME280;22064;42.672;23.282;2022-08-11T16:58:29;94640.63;;;28.86;43.45
35989;BME280;22064;42.672;23.282;2022-08-11T17:01:15;94625.25;;;29.29;42.56
35989;BME280;22064;42.672;23.282;2022-08-11T17:03:48;94632.72;;;29.43;42.08
35989;BME280;22064;42.672;23.282;2022-08-11T17:06:37;94629.63;;;29.41;42.00
35989;BME280;22064;42.672;23.282;2022-08-11T17:09:26;94638.47;;;28.07;44.90
35989;BME280;22064;42.672;23.282;2022-08-11T17:12:13;94637.13;;;27.11;47.95
35989;BME280;22064;42.672;23.282;2022-08-11T17:15:00;94639.72;;;26.32;51.60
35989;BME280;22064;42.672;23.282;2022-08-11T17:17:31;94644.59;;;25.86;55.21
35989;BME280;22064;42.672;23.282;2022-08-11T17:20:02;94645.69;;;25.32;60.04